createdAt,value
2018-08-04T00:00:48.941Z,1018.24
2018-08-04T00:01:49.530Z,1018.18
2018-08-04T00:02:50.110Z,1018.11
2018-08-04T00:03:50.699Z,1018.15
2018-08-04T00:04:51.336Z,1018.18
2018-08-04T00:05:51.920Z,1018.17
2018-08-04T00:06:52.503Z,1018.19
2018-08-04T00:07:53.093Z,1018.16
2018-08-04T00:08:53.737Z,1018.05
2018-08-04T00:09:54.319Z,1018.15
2018-08-04T00:10:54.950Z,1018.09
2018-08-04T00:11:55.569Z,1018.12
2018-08-04T00:12:56.118Z,1018.09
2018-08-04T00:13:56.707Z,1018.11
2018-08-04T00:14:57.343Z,1018.14
2018-08-04T00:15:57.938Z,1018.14
2018-08-04T00:16:58.570Z,1018.13
2018-08-04T00:17:59.158Z,1018.09
2018-08-04T00:18:59.736Z,1018.11
2018-08-04T00:20:00.325Z,1018.09
2018-08-04T00:21:00.916Z,1018.01
2018-08-04T00:22:01.497Z,1018.06
2018-08-04T00:23:02.138Z,1017.99
2018-08-04T00:24:02.724Z,1018.06
2018-08-04T00:25:03.311Z,1018.01
2018-08-04T00:26:03.898Z,1017.97
2018-08-04T00:27:04.485Z,1017.95
2018-08-04T00:28:05.125Z,1017.92
2018-08-04T00:29:05.725Z,1018.03
2018-08-04T00:30:06.401Z,1017.99
2018-08-04T00:31:06.981Z,1017.91
2018-08-04T00:32:07.578Z,1017.89
2018-08-04T00:33:08.157Z,1017.92
2018-08-04T00:34:08.747Z,1017.90
2018-08-04T00:35:09.332Z,1017.96
2018-08-04T00:36:09.922Z,1017.96
2018-08-04T00:37:10.510Z,1017.96
2018-08-04T00:38:11.098Z,1017.85
2018-08-04T00:39:11.685Z,1017.87
2018-08-04T00:40:12.272Z,1017.90
2018-08-04T00:41:12.857Z,1017.89
2018-08-04T00:42:13.442Z,1017.84
2018-08-04T00:43:14.081Z,1017.86
2018-08-04T00:44:14.668Z,1017.84
2018-08-04T00:45:15.247Z,1017.77
2018-08-04T00:46:15.839Z,1017.77
2018-08-04T00:47:16.625Z,1017.82
2018-08-04T00:48:17.214Z,1017.79
2018-08-04T00:49:17.795Z,1017.77
2018-08-04T00:50:18.383Z,1017.79
2018-08-04T00:51:19.018Z,1017.87
2018-08-04T00:52:19.608Z,1017.88
2018-08-04T00:53:20.197Z,1018.01
2018-08-04T00:54:20.783Z,1018.19
2018-08-04T00:55:21.374Z,1018.29
2018-08-04T00:56:21.962Z,1018.29
2018-08-04T00:57:22.545Z,1018.08
2018-08-04T00:58:23.176Z,1018.05
2018-08-04T00:59:23.814Z,1018.05
2018-08-04T01:00:24.459Z,1018.19
2018-08-04T01:01:24.988Z,1018.21
2018-08-04T01:02:25.621Z,1018.05
2018-08-04T01:03:26.206Z,1017.89
2018-08-04T01:04:26.791Z,1017.92
2018-08-04T01:05:27.378Z,1017.87
2018-08-04T01:06:27.960Z,1018.09
2018-08-04T01:07:28.547Z,1018.18
2018-08-04T01:08:29.131Z,1018.20
2018-08-04T01:09:29.717Z,1018.13
2018-08-04T01:10:30.306Z,1018.13
2018-08-04T01:11:30.898Z,1018.06
2018-08-04T01:12:31.486Z,1018.08
2018-08-04T01:13:32.075Z,1018.18
2018-08-04T01:14:32.658Z,1018.26
2018-08-04T01:15:33.299Z,1018.22
2018-08-04T01:16:33.938Z,1018.08
2018-08-04T01:17:34.570Z,1018.06
2018-08-04T01:18:35.160Z,1018.17
2018-08-04T01:19:35.795Z,1018.27
2018-08-04T01:20:36.380Z,1018.26
2018-08-04T01:21:36.967Z,1018.19
2018-08-04T01:22:37.559Z,1018.19
2018-08-04T01:23:38.145Z,1018.18
2018-08-04T01:24:38.735Z,1018.06
2018-08-04T01:25:39.323Z,1018.16
2018-08-04T01:26:39.907Z,1018.11
2018-08-04T01:27:40.499Z,1018.09
2018-08-04T01:28:41.083Z,1018.07
2018-08-04T01:29:41.672Z,1018.15
2018-08-04T01:30:42.409Z,1018.23
2018-08-04T01:31:43.045Z,1018.13
2018-08-04T01:32:43.634Z,1018.03
2018-08-04T01:33:44.221Z,1017.93
2018-08-04T01:34:44.806Z,1017.88
2018-08-04T01:35:45.444Z,1017.85
2018-08-04T01:36:46.077Z,1017.83
2018-08-04T01:37:46.709Z,1017.89
2018-08-04T01:38:47.300Z,1017.88
2018-08-04T01:39:47.888Z,1017.83
2018-08-04T01:40:48.470Z,1017.96
2018-08-04T01:41:49.062Z,1017.90
2018-08-04T01:42:49.650Z,1017.94
2018-08-04T01:43:50.239Z,1017.81
2018-08-04T01:44:50.821Z,1017.73
2018-08-04T01:45:51.403Z,1017.85
2018-08-04T01:46:52.045Z,1017.91
2018-08-04T01:47:52.635Z,1018.03
2018-08-04T01:48:53.216Z,1018.10
2018-08-04T01:49:53.848Z,1018.11
2018-08-04T01:50:54.436Z,1018.13
2018-08-04T01:51:55.019Z,1018.00
2018-08-04T01:52:55.600Z,1017.91
2018-08-04T01:53:56.193Z,1017.97
2018-08-04T01:54:56.777Z,1017.97
2018-08-04T01:55:57.370Z,1018.00
2018-08-04T01:56:58.156Z,1017.89
2018-08-04T01:57:58.755Z,1018.01
2018-08-04T01:58:59.363Z,1018.05
2018-08-04T01:59:59.924Z,1018.07
2018-08-04T02:01:00.510Z,1018.09
2018-08-04T02:02:01.148Z,1018.02
2018-08-04T02:03:01.736Z,1018.01
2018-08-04T02:04:02.320Z,1018.05
2018-08-04T02:05:02.917Z,1018.03
2018-08-04T02:06:03.500Z,1017.98
2018-08-04T02:07:04.133Z,1017.98
2018-08-04T02:08:04.776Z,1017.98
2018-08-04T02:09:05.357Z,1017.98
2018-08-04T02:10:05.945Z,1018.03
2018-08-04T02:11:06.534Z,1018.13
2018-08-04T02:12:07.123Z,1018.10
2018-08-04T02:13:07.756Z,1018.06
2018-08-04T02:14:08.342Z,1018.08
2018-08-04T02:15:08.933Z,1018.09
2018-08-04T02:16:09.518Z,1018.02
2018-08-04T02:17:10.152Z,1018.00
2018-08-04T02:18:10.788Z,1018.09
2018-08-04T02:19:11.471Z,1017.99
2018-08-04T02:20:12.055Z,1017.95
2018-08-04T02:21:12.644Z,1018.04
2018-08-04T02:22:13.242Z,1018.09
2018-08-04T02:23:13.915Z,1018.01
2018-08-04T02:24:14.501Z,1018.04
2018-08-04T02:25:15.087Z,1018.03
2018-08-04T02:26:15.674Z,1017.98
2018-08-04T02:27:16.262Z,1017.94
2018-08-04T02:28:16.848Z,1018.01
2018-08-04T02:29:17.433Z,1018.00
2018-08-04T02:30:18.026Z,1018.03
2018-08-04T02:31:18.605Z,1018.10
2018-08-04T02:32:19.193Z,1018.12
2018-08-04T02:33:19.782Z,1018.01
2018-08-04T02:34:20.419Z,1017.97
2018-08-04T02:35:21.015Z,1017.95
2018-08-04T02:36:21.645Z,1017.93
2018-08-04T02:37:22.270Z,1017.90
2018-08-04T02:38:22.977Z,1017.92
2018-08-04T02:39:23.610Z,1017.96
2018-08-04T02:40:24.194Z,1017.86
2018-08-04T02:41:24.829Z,1017.91
2018-08-04T02:42:25.431Z,1018.03
2018-08-04T02:43:26.801Z,1017.91
2018-08-04T02:44:27.383Z,1017.84
2018-08-04T02:45:27.971Z,1017.94
2018-08-04T02:46:28.559Z,1017.97
2018-08-04T02:47:29.146Z,1017.96
2018-08-04T02:48:29.735Z,1017.93
2018-08-04T02:49:30.322Z,1017.87
2018-08-04T02:50:30.911Z,1017.96
2018-08-04T02:51:31.549Z,1017.97
2018-08-04T02:52:32.128Z,1017.91
2018-08-04T02:53:32.724Z,1017.87
2018-08-04T02:54:33.358Z,1017.95
2018-08-04T02:55:33.948Z,1017.93
2018-08-04T02:57:19.091Z,1017.84
2018-08-04T02:58:19.677Z,1017.86
2018-08-04T02:59:20.261Z,1017.88
2018-08-04T03:00:20.845Z,1017.88
2018-08-04T03:01:21.479Z,1017.88
2018-08-04T03:02:22.072Z,1017.76
2018-08-04T03:03:22.659Z,1017.80
2018-08-04T03:04:23.249Z,1017.85
2018-08-04T03:05:23.867Z,1017.76
2018-08-04T03:06:24.417Z,1017.75
2018-08-04T03:07:25.011Z,1017.81
2018-08-04T03:08:25.720Z,1017.84
2018-08-04T03:09:26.226Z,1017.89
2018-08-04T03:10:26.812Z,1017.80
2018-08-04T03:11:27.396Z,1017.84
2018-08-04T03:12:27.986Z,1017.80
2018-08-04T03:13:28.572Z,1017.83
2018-08-04T03:14:29.211Z,1017.77
2018-08-04T03:15:29.840Z,1017.77
2018-08-04T03:16:30.470Z,1017.80
2018-08-04T03:17:31.108Z,1017.73
2018-08-04T03:18:31.694Z,1017.81
2018-08-04T03:19:32.275Z,1017.84
2018-08-04T03:20:32.858Z,1017.81
2018-08-04T03:21:33.450Z,1017.79
2018-08-04T03:22:34.039Z,1017.85
2018-08-04T03:23:34.626Z,1017.83
2018-08-04T03:24:35.218Z,1017.83
2018-08-04T03:25:35.803Z,1017.83
2018-08-04T03:26:36.432Z,1017.83
2018-08-04T03:27:37.023Z,1017.90
2018-08-04T03:28:37.612Z,1017.99
2018-08-04T03:29:38.204Z,1017.90
2018-08-04T03:30:38.793Z,1017.86
2018-08-04T03:31:39.431Z,1017.91
2018-08-04T03:32:40.015Z,1017.85
2018-08-04T03:33:40.604Z,1017.93
2018-08-04T03:34:41.194Z,1017.93
2018-08-04T03:35:41.777Z,1017.89
2018-08-04T03:36:42.416Z,1017.92
2018-08-04T03:37:42.999Z,1017.86
2018-08-04T03:38:43.590Z,1017.87
2018-08-04T03:39:44.179Z,1017.82
2018-08-04T03:40:44.818Z,1017.82
2018-08-04T03:41:45.407Z,1017.82
2018-08-04T03:42:45.993Z,1017.81
2018-08-04T03:43:46.579Z,1017.80
2018-08-04T03:44:47.170Z,1017.83
2018-08-04T03:45:47.755Z,1017.88
2018-08-04T03:46:48.343Z,1017.96
2018-08-04T03:47:48.976Z,1017.86
2018-08-04T03:48:49.562Z,1017.91
2018-08-04T03:49:50.151Z,1017.85
2018-08-04T03:50:50.740Z,1017.84
2018-08-04T03:51:51.327Z,1017.84
2018-08-04T03:52:51.917Z,1017.82
2018-08-04T03:53:52.499Z,1017.79
2018-08-04T03:54:53.091Z,1017.69
2018-08-04T03:55:53.680Z,1017.78
2018-08-04T03:56:54.263Z,1017.77
2018-08-04T03:57:54.853Z,1017.81
2018-08-04T03:58:55.435Z,1017.73
2018-08-04T03:59:56.078Z,1017.76
2018-08-04T04:00:56.703Z,1017.82
2018-08-04T04:01:57.288Z,1017.79
2018-08-04T04:02:57.875Z,1017.76
2018-08-04T04:03:58.512Z,1017.78
2018-08-04T04:04:59.099Z,1017.80
2018-08-04T04:05:59.689Z,1017.81
2018-08-04T04:07:00.279Z,1017.75
2018-08-04T04:08:00.867Z,1017.77
2018-08-04T04:09:01.456Z,1017.79
2018-08-04T04:10:02.140Z,1017.85
2018-08-04T04:11:02.726Z,1017.76
2018-08-04T04:12:03.314Z,1017.85
2018-08-04T04:13:03.903Z,1017.89
2018-08-04T04:14:04.538Z,1017.87
2018-08-04T04:15:05.120Z,1017.77
2018-08-04T04:16:05.709Z,1017.83
2018-08-04T04:17:06.446Z,1017.84
2018-08-04T04:18:07.036Z,1017.84
2018-08-04T04:19:07.616Z,1017.82
2018-08-04T04:20:08.255Z,1017.84
2018-08-04T04:21:08.834Z,1017.86
2018-08-04T04:22:09.423Z,1017.84
2018-08-04T04:23:10.012Z,1017.80
2018-08-04T04:24:10.596Z,1017.84
2018-08-04T04:25:11.232Z,1017.83
2018-08-04T04:26:11.818Z,1017.85
2018-08-04T04:27:12.403Z,1017.95
2018-08-04T04:28:12.987Z,1017.95
2018-08-04T04:29:13.579Z,1017.89
2018-08-04T04:30:14.218Z,1017.94
2018-08-04T04:31:14.800Z,1018.00
2018-08-04T04:32:15.430Z,1017.95
2018-08-04T04:33:16.021Z,1017.93
2018-08-04T04:34:16.599Z,1017.91
2018-08-04T04:35:17.240Z,1017.93
2018-08-04T04:36:17.825Z,1017.93
2018-08-04T04:37:18.414Z,1017.89
2018-08-04T04:38:18.999Z,1017.93
2018-08-04T04:39:19.591Z,1017.92
2018-08-04T04:40:20.170Z,1017.91
2018-08-04T04:41:20.758Z,1017.97
2018-08-04T04:42:21.346Z,1017.94
2018-08-04T04:43:21.935Z,1017.89
2018-08-04T04:44:22.523Z,1017.95
2018-08-04T04:45:23.106Z,1017.90
2018-08-04T04:46:23.690Z,1017.95
2018-08-04T04:47:24.284Z,1017.92
2018-08-04T04:48:25.015Z,1017.94
2018-08-04T04:49:25.555Z,1017.87
2018-08-04T04:50:26.142Z,1017.88
2018-08-04T04:51:26.726Z,1017.89
2018-08-04T04:52:27.363Z,1017.87
2018-08-04T04:53:27.952Z,1017.91
2018-08-04T04:54:28.588Z,1017.92
2018-08-04T04:55:29.254Z,1017.94
2018-08-04T04:56:29.806Z,1017.92
2018-08-04T04:57:30.390Z,1017.86
2018-08-04T04:58:30.981Z,1017.86
2018-08-04T04:59:31.568Z,1017.91
2018-08-04T05:00:32.155Z,1018.01
2018-08-04T05:01:32.744Z,1017.98
2018-08-04T05:02:33.329Z,1018.05
2018-08-04T05:03:33.966Z,1017.92
2018-08-04T05:04:34.555Z,1017.99
2018-08-04T05:05:35.188Z,1018.01
2018-08-04T05:06:35.771Z,1017.95
2018-08-04T05:07:36.399Z,1018.01
2018-08-04T05:08:37.040Z,1018.00
2018-08-04T05:09:37.572Z,1018.02
2018-08-04T05:10:38.256Z,1018.04
2018-08-04T05:11:38.938Z,1018.00
2018-08-04T05:12:39.527Z,1018.05
2018-08-04T05:13:40.117Z,1018.11
2018-08-04T05:14:40.757Z,1018.21
2018-08-04T05:15:41.336Z,1018.17
2018-08-04T05:16:41.925Z,1018.21
2018-08-04T05:17:42.507Z,1018.22
2018-08-04T05:18:43.147Z,1018.25
2018-08-04T05:19:43.729Z,1018.13
2018-08-04T05:20:44.361Z,1018.13
2018-08-04T05:21:44.950Z,1018.12
2018-08-04T05:22:45.536Z,1018.14
2018-08-04T05:23:46.173Z,1018.10
2018-08-04T05:24:46.763Z,1018.13
2018-08-04T05:25:47.347Z,1018.10
2018-08-04T05:26:47.934Z,1018.14
2018-08-04T05:27:48.528Z,1018.10
2018-08-04T05:28:49.108Z,1018.06
2018-08-04T05:29:49.745Z,1018.10
2018-08-04T05:30:50.384Z,1018.19
2018-08-04T05:31:51.123Z,1018.09
2018-08-04T05:32:51.754Z,1018.08
2018-08-04T05:33:52.436Z,1018.09
2018-08-04T05:34:53.028Z,1018.05
2018-08-04T05:35:53.708Z,1018.03
2018-08-04T05:36:54.299Z,1018.04
2018-08-04T05:37:54.892Z,1018.12
2018-08-04T05:38:55.476Z,1018.08
2018-08-04T05:39:56.067Z,1018.05
2018-08-04T05:40:56.656Z,1018.09
2018-08-04T05:41:57.293Z,1018.07
2018-08-04T05:42:57.875Z,1018.08
2018-08-04T05:43:58.460Z,1018.07
2018-08-04T05:44:59.042Z,1018.05
2018-08-04T05:45:59.682Z,1018.07
2018-08-04T05:47:00.268Z,1018.09
2018-08-04T05:48:00.861Z,1018.09
2018-08-04T05:49:01.444Z,1018.01
2018-08-04T05:50:02.122Z,1018.03
2018-08-04T05:51:02.665Z,1018.01
2018-08-04T05:52:03.255Z,1018.07
2018-08-04T05:53:03.893Z,1018.01
2018-08-04T05:54:04.481Z,1017.97
2018-08-04T05:55:05.074Z,1018.00
2018-08-04T05:56:05.710Z,1018.01
2018-08-04T05:57:06.342Z,1017.98
2018-08-04T05:58:06.925Z,1017.97
2018-08-04T05:59:07.513Z,1017.92
2018-08-04T06:00:08.100Z,1017.92
2018-08-04T06:01:08.689Z,1017.92
2018-08-04T06:02:09.277Z,1017.98
2018-08-04T06:03:09.916Z,1017.95
2018-08-04T06:04:10.454Z,1017.96
2018-08-04T06:05:11.043Z,1017.94
2018-08-04T06:06:11.676Z,1017.92
2018-08-04T06:07:12.266Z,1017.98
2018-08-04T06:08:13.054Z,1017.96
2018-08-04T06:09:13.641Z,1018.02
2018-08-04T06:10:14.224Z,1017.96
2018-08-04T06:11:14.808Z,1018.02
2018-08-04T06:12:15.449Z,1018.02
2018-08-04T06:13:16.082Z,1018.05
2018-08-04T06:14:16.666Z,1018.10
2018-08-04T06:15:17.251Z,1018.08
2018-08-04T06:16:17.835Z,1018.08
2018-08-04T06:17:18.444Z,1018.01
2018-08-04T06:18:19.007Z,1018.13
2018-08-04T06:19:19.598Z,1018.11
2018-08-04T06:20:20.185Z,1018.07
2018-08-04T06:21:20.770Z,1018.07
2018-08-04T06:22:21.352Z,1018.12
2018-08-04T06:23:21.993Z,1018.08
2018-08-04T06:24:22.581Z,1018.10
2018-08-04T06:25:23.168Z,1018.17
2018-08-04T06:26:23.803Z,1018.16
2018-08-04T06:27:24.477Z,1018.22
2018-08-04T06:28:25.029Z,1018.20
2018-08-04T06:29:25.634Z,1018.22
2018-08-04T06:30:26.203Z,1018.16
2018-08-04T06:31:26.835Z,1018.19
2018-08-04T06:32:27.424Z,1018.22
2018-08-04T06:33:28.010Z,1018.18
2018-08-04T06:34:28.598Z,1018.18
2018-08-04T06:35:29.186Z,1018.24
2018-08-04T06:36:29.774Z,1018.31
2018-08-04T06:37:30.362Z,1018.24
2018-08-04T06:38:30.951Z,1018.26
2018-08-04T06:39:31.538Z,1018.31
2018-08-04T06:40:32.127Z,1018.27
2018-08-04T06:41:32.793Z,1018.29
2018-08-04T06:42:33.349Z,1018.24
2018-08-04T06:43:33.932Z,1018.24
2018-08-04T06:44:34.525Z,1018.25
2018-08-04T06:45:35.161Z,1018.22
2018-08-04T06:46:35.750Z,1018.24
2018-08-04T06:47:36.376Z,1018.21
2018-08-04T06:48:37.018Z,1018.23
2018-08-04T06:49:37.643Z,1018.21
2018-08-04T06:50:38.230Z,1018.23
2018-08-04T06:51:38.816Z,1018.27
2018-08-04T06:52:39.400Z,1018.23
2018-08-04T06:53:39.986Z,1018.26
2018-08-04T06:54:40.565Z,1018.29
2018-08-04T06:55:41.157Z,1018.37
2018-08-04T06:56:41.743Z,1018.35
2018-08-04T06:57:42.334Z,1018.42
2018-08-04T06:58:42.915Z,1018.33
2018-08-04T06:59:43.507Z,1018.42
2018-08-04T07:00:44.147Z,1018.32
2018-08-04T07:01:44.731Z,1018.29
2018-08-04T07:02:45.316Z,1018.22
2018-08-04T07:03:45.904Z,1018.28
2018-08-04T07:04:46.492Z,1018.38
2018-08-04T07:05:47.080Z,1018.41
2018-08-04T07:06:47.674Z,1018.40
2018-08-04T07:07:48.306Z,1018.41
2018-08-04T07:08:48.942Z,1018.36
2018-08-04T07:09:49.524Z,1018.36
2018-08-04T07:10:50.113Z,1018.39
2018-08-04T07:11:50.701Z,1018.38
2018-08-04T07:12:51.290Z,1018.39
2018-08-04T07:13:51.914Z,1018.31
2018-08-04T07:14:52.456Z,1018.32
2018-08-04T07:15:53.049Z,1018.29
2018-08-04T07:16:53.638Z,1018.29
2018-08-04T07:17:54.225Z,1018.35
2018-08-04T07:18:54.815Z,1018.36
2018-08-04T07:19:55.446Z,1018.38
2018-08-04T07:20:56.031Z,1018.42
2018-08-04T07:21:56.620Z,1018.51
2018-08-04T07:22:57.333Z,1018.46
2018-08-04T07:23:57.842Z,1018.53
2018-08-04T07:24:58.429Z,1018.43
2018-08-04T07:25:59.019Z,1018.44
2018-08-04T07:26:59.651Z,1018.44
2018-08-04T07:28:00.237Z,1018.51
2018-08-04T07:29:00.861Z,1018.46
2018-08-04T07:30:01.415Z,1018.50
2018-08-04T07:31:01.998Z,1018.48
2018-08-04T07:32:02.625Z,1018.38
2018-08-04T07:33:03.209Z,1018.50
2018-08-04T07:34:03.793Z,1018.50
2018-08-04T07:35:04.385Z,1018.46
2018-08-04T07:36:05.023Z,1018.52
2018-08-04T07:37:05.605Z,1018.45
2018-08-04T07:38:06.246Z,1018.59
2018-08-04T07:39:06.825Z,1018.58
2018-08-04T07:40:07.415Z,1018.51
2018-08-04T07:41:08.057Z,1018.52
2018-08-04T07:42:08.688Z,1018.52
2018-08-04T07:43:09.273Z,1018.49
2018-08-04T07:44:09.862Z,1018.54
2018-08-04T07:45:10.449Z,1018.55
2018-08-04T07:46:11.038Z,1018.54
2018-08-04T07:47:11.621Z,1018.66
2018-08-04T07:48:12.208Z,1018.59
2018-08-04T07:49:12.823Z,1018.65
2018-08-04T07:50:13.382Z,1018.66
2018-08-04T07:51:13.968Z,1018.77
2018-08-04T07:52:14.550Z,1018.72
2018-08-04T07:53:15.143Z,1018.76
2018-08-04T07:54:15.732Z,1018.74
2018-08-04T07:55:16.316Z,1018.69
2018-08-04T07:56:16.903Z,1018.74
2018-08-04T07:57:17.539Z,1018.67
2018-08-04T07:58:18.233Z,1018.64
2018-08-04T07:59:18.909Z,1018.61
2018-08-04T08:00:19.439Z,1018.61
2018-08-04T08:01:20.019Z,1018.65
2018-08-04T08:02:20.608Z,1018.70
2018-08-04T08:03:21.249Z,1018.69
2018-08-04T08:04:21.836Z,1018.68
2018-08-04T08:05:22.423Z,1018.85
2018-08-04T08:06:23.009Z,1018.78
2018-08-04T08:07:23.593Z,1018.76
2018-08-04T08:08:24.227Z,1018.74
2018-08-04T08:09:24.816Z,1018.75
2018-08-04T08:10:25.440Z,1018.74
2018-08-04T08:11:26.009Z,1018.81
2018-08-04T08:12:26.571Z,1018.78
2018-08-04T08:13:27.154Z,1018.84
2018-08-04T08:14:27.790Z,1018.88
2018-08-04T08:15:28.374Z,1018.90
2018-08-04T08:16:29.041Z,1018.81
2018-08-04T08:17:29.594Z,1018.81
2018-08-04T08:18:30.184Z,1018.81
2018-08-04T08:19:30.794Z,1018.81
2018-08-04T08:20:31.359Z,1018.87
2018-08-04T08:21:31.942Z,1018.93
2018-08-04T08:22:32.533Z,1018.93
2018-08-04T08:23:33.121Z,1018.97
2018-08-04T08:24:33.757Z,1018.88
2018-08-04T08:25:34.384Z,1019.00
2018-08-04T08:26:34.970Z,1018.92
2018-08-04T08:27:35.558Z,1018.89
2018-08-04T08:28:36.138Z,1018.89
2018-08-04T08:29:36.725Z,1018.84
2018-08-04T08:30:37.360Z,1018.91
2018-08-04T08:31:37.979Z,1018.84
2018-08-04T08:32:38.578Z,1018.94
2018-08-04T08:33:39.114Z,1018.85
2018-08-04T08:34:39.706Z,1018.91
2018-08-04T08:35:40.347Z,1018.82
2018-08-04T08:36:40.929Z,1018.89
2018-08-04T08:37:41.510Z,1018.88
2018-08-04T08:38:42.105Z,1018.94
2018-08-04T08:39:42.690Z,1018.91
2018-08-04T08:40:43.330Z,1018.91
2018-08-04T08:41:43.911Z,1018.86
2018-08-04T08:42:44.496Z,1018.83
2018-08-04T08:43:45.081Z,1018.85
2018-08-04T08:44:45.674Z,1018.94
2018-08-04T08:45:46.305Z,1018.85
2018-08-04T08:46:46.888Z,1018.97
2018-08-04T08:47:47.543Z,1018.88
2018-08-04T08:48:48.118Z,1018.86
2018-08-04T08:49:48.705Z,1018.87
2018-08-04T08:50:49.342Z,1018.98
2018-08-04T08:51:49.929Z,1018.91
2018-08-04T08:52:50.515Z,1018.93
2018-08-04T08:53:51.168Z,1018.89
2018-08-04T08:54:51.686Z,1018.94
2018-08-04T08:55:52.271Z,1018.93
2018-08-04T08:56:52.902Z,1018.88
2018-08-04T08:57:53.494Z,1018.84
2018-08-04T08:58:54.082Z,1018.91
2018-08-04T08:59:54.669Z,1018.97
2018-08-04T09:00:55.260Z,1018.97
2018-08-04T09:01:55.846Z,1018.97
2018-08-04T09:02:56.483Z,1018.96
2018-08-04T09:03:57.064Z,1018.97
2018-08-04T09:04:57.653Z,1018.99
2018-08-04T09:05:58.241Z,1018.95
2018-08-04T09:06:58.824Z,1018.88
2018-08-04T09:07:59.424Z,1018.92
2018-08-04T09:08:59.998Z,1018.87
2018-08-04T09:10:00.583Z,1018.93
2018-08-04T09:11:01.169Z,1018.95
2018-08-04T09:12:01.809Z,1018.89
2018-08-04T09:13:02.399Z,1018.89
2018-08-04T09:14:02.987Z,1018.91
2018-08-04T09:15:03.571Z,1018.94
2018-08-04T09:16:04.159Z,1018.89
2018-08-04T09:17:04.737Z,1018.88
2018-08-04T09:18:05.365Z,1018.94
2018-08-04T09:19:06.048Z,1018.87
2018-08-04T09:20:06.631Z,1018.84
2018-08-04T09:21:07.216Z,1018.81
2018-08-04T09:22:07.802Z,1018.78
2018-08-04T09:23:08.522Z,1018.82
2018-08-04T09:24:09.020Z,1018.85
2018-08-04T09:25:09.608Z,1018.82
2018-08-04T09:26:10.197Z,1018.81
2018-08-04T09:27:10.834Z,1018.79
2018-08-04T09:28:11.427Z,1018.81
2018-08-04T09:29:12.056Z,1018.89
2018-08-04T09:30:12.646Z,1018.82
2018-08-04T09:31:13.275Z,1018.85
2018-08-04T09:32:13.861Z,1018.91
2018-08-04T09:33:14.448Z,1018.89
2018-08-04T09:34:15.039Z,1018.92
2018-08-04T09:35:15.675Z,1018.89
2018-08-04T09:36:16.263Z,1018.90
2018-08-04T09:37:16.849Z,1018.93
2018-08-04T09:38:17.431Z,1018.86
2018-08-04T09:39:18.069Z,1018.85
2018-08-04T09:40:18.650Z,1018.82
2018-08-04T09:41:19.244Z,1018.77
2018-08-04T09:42:19.923Z,1018.78
2018-08-04T09:43:20.508Z,1018.74
2018-08-04T09:44:21.142Z,1018.77
2018-08-04T09:45:21.723Z,1018.82
2018-08-04T09:46:22.313Z,1018.82
2018-08-04T09:47:22.902Z,1018.83
2018-08-04T09:48:23.493Z,1018.84
2018-08-04T09:49:24.079Z,1018.81
2018-08-04T09:50:24.670Z,1018.77
2018-08-04T09:51:25.257Z,1018.89
2018-08-04T09:52:25.844Z,1018.80
2018-08-04T09:53:26.424Z,1018.86
2018-08-04T09:54:27.021Z,1018.88
2018-08-04T09:55:27.609Z,1018.88
2018-08-04T09:56:28.192Z,1018.86
2018-08-04T09:57:28.827Z,1018.91
2018-08-04T09:58:29.470Z,1018.87
2018-08-04T09:59:30.067Z,1018.90
2018-08-04T10:00:30.651Z,1018.85
2018-08-04T10:01:31.291Z,1018.89
2018-08-04T10:02:31.876Z,1018.90
2018-08-04T10:03:32.466Z,1018.86
2018-08-04T10:04:33.055Z,1018.93
2018-08-04T10:05:33.644Z,1018.88
2018-08-04T10:06:34.235Z,1018.89
2018-08-04T10:07:34.874Z,1018.87
2018-08-04T10:08:35.461Z,1018.92
2018-08-04T10:09:36.048Z,1018.90
2018-08-04T10:10:36.638Z,1018.88
2018-08-04T10:11:37.225Z,1018.84
2018-08-04T10:12:37.811Z,1018.88
2018-08-04T10:13:38.495Z,1018.98
2018-08-04T10:14:39.136Z,1018.87
2018-08-04T10:15:39.727Z,1018.84
2018-08-04T10:16:40.366Z,1018.87
2018-08-04T10:17:40.956Z,1018.84
2018-08-04T10:18:41.545Z,1018.76
2018-08-04T10:19:42.130Z,1018.84
2018-08-04T10:20:42.723Z,1018.87
2018-08-04T10:21:43.306Z,1018.91
2018-08-04T10:22:43.899Z,1018.87
2018-08-04T10:23:44.487Z,1018.83
2018-08-04T10:24:45.071Z,1018.93
2018-08-04T10:25:45.667Z,1018.90
2018-08-04T10:26:46.249Z,1018.93
2018-08-04T10:27:46.835Z,1018.84
2018-08-04T10:28:47.478Z,1018.89
2018-08-04T10:29:48.120Z,1018.84
2018-08-04T10:30:48.755Z,1018.84
2018-08-04T10:31:49.458Z,1018.84
2018-08-04T10:32:50.124Z,1018.84
2018-08-04T10:33:50.705Z,1018.78
2018-08-04T10:34:51.335Z,1018.85
2018-08-04T10:35:51.950Z,1018.86
2018-08-04T10:36:52.513Z,1018.90
2018-08-04T10:37:53.104Z,1018.87
2018-08-04T10:38:53.693Z,1018.85
2018-08-04T10:39:54.282Z,1018.85
2018-08-04T10:40:54.889Z,1018.85
2018-08-04T10:41:55.504Z,1018.86
2018-08-04T10:42:56.092Z,1018.88
2018-08-04T10:43:56.691Z,1018.83
2018-08-04T10:44:57.372Z,1018.80
2018-08-04T10:45:57.961Z,1018.80
2018-08-04T10:46:58.589Z,1018.81
2018-08-04T10:47:59.182Z,1018.87
2018-08-04T10:48:59.771Z,1018.87
2018-08-04T10:50:00.363Z,1018.78
2018-08-04T10:51:01.002Z,1018.87
2018-08-04T10:52:01.592Z,1018.78
2018-08-04T10:53:02.175Z,1018.80
2018-08-04T10:54:02.765Z,1018.83
2018-08-04T10:55:03.350Z,1018.84
2018-08-04T10:56:03.936Z,1018.73
2018-08-04T10:57:04.584Z,1018.79
2018-08-04T10:58:05.111Z,1018.69
2018-08-04T10:59:50.217Z,1018.82
2018-08-04T11:00:50.809Z,1018.67
2018-08-04T11:01:51.398Z,1018.74
2018-08-04T11:02:51.991Z,1018.69
2018-08-04T11:03:52.669Z,1018.74
2018-08-04T11:04:53.224Z,1018.70
2018-08-04T11:05:53.858Z,1018.68
2018-08-04T11:06:54.498Z,1018.68
2018-08-04T11:07:55.078Z,1018.76
2018-08-04T11:08:55.717Z,1018.62
2018-08-04T11:09:56.308Z,1018.69
2018-08-04T11:10:56.894Z,1018.76
2018-08-04T11:11:57.483Z,1018.74
2018-08-04T11:12:58.124Z,1018.78
2018-08-04T11:13:58.712Z,1018.77
2018-08-04T11:14:59.294Z,1018.76
2018-08-04T11:15:59.887Z,1018.82
2018-08-04T11:17:00.478Z,1018.80
2018-08-04T11:18:01.083Z,1018.69
2018-08-04T11:19:01.654Z,1018.76
2018-08-04T11:20:02.240Z,1018.75
2018-08-04T11:21:02.825Z,1018.78
2018-08-04T11:22:03.428Z,1018.71
2018-08-04T11:23:03.999Z,1018.84
2018-08-04T11:24:04.643Z,1018.72
2018-08-04T11:25:05.271Z,1018.81
2018-08-04T11:26:05.909Z,1018.84
2018-08-04T11:27:06.498Z,1018.70
2018-08-04T11:28:07.080Z,1018.85
2018-08-04T11:29:07.669Z,1018.80
2018-08-04T11:30:08.257Z,1018.78
2018-08-04T11:31:08.949Z,1018.78
2018-08-04T11:32:09.532Z,1018.76
2018-08-04T11:33:10.125Z,1018.78
2018-08-04T11:34:10.715Z,1018.77
2018-08-04T11:35:11.404Z,1018.81
2018-08-04T11:36:11.990Z,1018.80
2018-08-04T11:37:12.579Z,1018.74
2018-08-04T11:38:13.381Z,1018.74
2018-08-04T11:39:14.002Z,1018.77
2018-08-04T11:40:14.587Z,1018.73
2018-08-04T11:41:15.175Z,1018.77
2018-08-04T11:42:15.766Z,1018.69
2018-08-04T11:43:16.358Z,1018.71
2018-08-04T11:44:16.945Z,1018.69
2018-08-04T11:45:17.535Z,1018.66
2018-08-04T11:46:18.115Z,1018.72
2018-08-04T11:47:18.707Z,1018.71
2018-08-04T11:48:19.298Z,1018.64
2018-08-04T11:49:19.886Z,1018.71
2018-08-04T11:50:20.525Z,1018.74
2018-08-04T11:51:21.117Z,1018.65
2018-08-04T11:52:21.758Z,1018.77
2018-08-04T11:53:22.395Z,1018.68
2018-08-04T11:54:22.982Z,1018.70
2018-08-04T11:55:23.576Z,1018.63
2018-08-04T11:56:24.159Z,1018.66
2018-08-04T11:57:24.753Z,1018.66
2018-08-04T11:58:25.413Z,1018.70
2018-08-04T11:59:25.921Z,1018.67
2018-08-04T12:00:26.512Z,1018.70
2018-08-04T12:01:27.097Z,1018.72
2018-08-04T12:02:27.688Z,1018.64
2018-08-04T12:03:28.276Z,1018.67
2018-08-04T12:04:28.868Z,1018.72
2018-08-04T12:05:29.513Z,1018.69
2018-08-04T12:06:30.097Z,1018.62
2018-08-04T12:07:30.729Z,1018.72
2018-08-04T12:08:31.414Z,1018.66
2018-08-04T12:09:32.006Z,1018.66
2018-08-04T12:10:32.643Z,1018.72
2018-08-04T12:11:33.233Z,1018.68
2018-08-04T12:12:33.822Z,1018.68
2018-08-04T12:13:34.460Z,1018.73
2018-08-04T12:14:35.099Z,1018.72